TimeEST,TemperatureF,Dew PointF,Humidity,Sea Level PressureIn,VisibilityMPH,Wind Direction,Wind SpeedMPH,Gust SpeedMPH,PrecipitationIn,Events,Conditions,WindDirDegrees,DateUTC
12:53 AM,43.0,26.1,51,30.27,10.0,South,10.4,-,N/A,,Overcast,190,2013-11-21 05:53:00
1:53 AM,42.1,27.0,55,30.27,10.0,South,5.8,-,N/A,,Overcast,180,2013-11-21 06:53:00
2:53 AM,43.0,28.0,56,30.28,10.0,SW,3.5,-,N/A,,Overcast,220,2013-11-21 07:53:00
3:53 AM,41.0,30.0,65,30.27,10.0,Calm,Calm,-,0.00,,Overcast,0,2013-11-21 08:53:00
4:53 AM,39.9,34.0,79,30.27,10.0,SSE,6.9,-,0.00,Rain,Light Rain,160,2013-11-21 09:53:00
5:53 AM,42.1,32.0,67,30.25,10.0,SSE,6.9,-,0.00,,Overcast,160,2013-11-21 10:53:00
6:53 AM,42.1,30.9,65,30.25,10.0,SSE,8.1,-,N/A,,Overcast,150,2013-11-21 11:53:00
7:53 AM,43.0,30.0,60,30.24,10.0,South,11.5,-,N/A,,Overcast,170,2013-11-21 12:53:00
8:53 AM,45.0,30.9,58,30.25,10.0,South,8.1,-,N/A,,Overcast,180,2013-11-21 13:53:00
9:53 AM,46.0,32.0,58,30.25,10.0,South,9.2,-,N/A,,Overcast,190,2013-11-21 14:53:00
10:53 AM,46.9,34.0,61,30.26,10.0,South,11.5,17.3,N/A,,Overcast,190,2013-11-21 15:53:00
11:53 AM,48.0,37.0,66,30.24,10.0,SSW,11.5,-,N/A,,Overcast,200,2013-11-21 16:53:00
12:53 PM,48.9,37.9,66,30.23,10.0,South,10.4,-,N/A,,Overcast,190,2013-11-21 17:53:00
1:53 PM,50.0,39.0,66,30.21,10.0,South,5.8,-,N/A,,Overcast,190,2013-11-21 18:53:00
2:53 PM,50.0,39.9,68,30.20,10.0,South,6.9,-,N/A,,Overcast,190,2013-11-21 19:53:00
3:53 PM,48.9,41.0,74,30.20,10.0,South,5.8,-,N/A,,Overcast,180,2013-11-21 20:53:00
4:53 PM,48.9,41.0,74,30.21,10.0,South,6.9,-,N/A,,Overcast,190,2013-11-21 21:53:00
5:53 PM,48.0,41.0,77,30.21,9.0,South,9.2,-,N/A,,Overcast,180,2013-11-21 22:53:00
6:53 PM,48.0,41.0,77,30.21,8.0,South,6.9,-,N/A,,Overcast,190,2013-11-21 23:53:00
7:05 PM,46.4,41.0,81,30.20,8.0,SSW,6.9,-,N/A,,Overcast,200,2013-11-22 00:05:00
7:53 PM,46.0,42.1,86,30.21,6.0,South,8.1,-,0.00,Rain,Light Rain,190,2013-11-22 00:53:00
8:53 PM,45.0,42.1,90,30.21,6.0,SSW,6.9,-,0.02,Rain,Light Rain,200,2013-11-22 01:53:00
9:53 PM,45.0,42.1,90,30.21,5.0,SSW,3.5,-,0.03,Rain,Light Rain,210,2013-11-22 02:53:00
10:53 PM,45.0,42.1,90,30.20,4.0,SW,3.5,-,0.04,Rain,Light Rain,230,2013-11-22 03:53:00
11:10 PM,44.6,42.8,93,30.18,4.0,SSW,3.5,-,0.01,Rain,Light Rain,210,2013-11-22 04:10:00
11:53 PM,45.0,42.1,90,30.19,4.0,Calm,Calm,-,0.04,Rain,Light Rain,0,2013-11-22 04:53:00